»·PEaware :: DFHNF 49X-L52

DFHNF :: 49X-L52

FLIGHT INFORMATION

Flight Status: Arrived
Operator: Unknown
More flights by this operator :: More flights under this callsign
Pilot: Klaus A. (15485)
Aircraft: PILATUS PC-12 EAGLE
(PC12)
More flights by this aircraft type
Origin: 49X Chemehuevi Valley
United States
Destination: L52 Oceano Co
United States
More flights between these airports :: More routes between these airports
Route: EED V12 HEC PMD RZS T257 MQO
File this flight plan on PilotEdge
Remarks: / G Newbie Custom Weather
Altitude:
(Current/Filed)
20,000ft
Speed:
(Current/Filed)
210kts
Departed: 18-Nov-17 08:40 AM
Arrived: 18-Nov-17 10:53 AM
Distance/Time
Traveled:
307nm/2:12
Distance/Time
To Go:
Arrived

Flight Plot

Page will automatically refresh every two minutes.

Flight plan parsing failed; only flown route is shown


Map Options




Map Legend


Flown Route
Filed Route
Departure Airport
Arrival Airport
Navaid (VOR, NDB)
Fix

Horizontal Profiles

Position Reports

Time Latitude Longitude Heading Altitude Ground
Speed
18-Nov-17 08:20 34.529439 -114.430279 179 634ft 0kts
18-Nov-17 08:21 34.529439 -114.430279 179 634ft 0kts
18-Nov-17 08:22 34.529439 -114.430279 179 634ft 0kts
18-Nov-17 08:23 34.529439 -114.430279 179 634ft 0kts
18-Nov-17 08:24 34.529439 -114.430279 179 634ft 0kts
18-Nov-17 08:25 34.529439 -114.430279 179 634ft 0kts
18-Nov-17 08:26 34.529439 -114.430279 179 634ft 0kts
18-Nov-17 08:27 34.529439 -114.430279 179 634ft 0kts
18-Nov-17 08:28 34.529439 -114.430279 179 634ft 0kts
18-Nov-17 08:29 34.529439 -114.430279 179 634ft 0kts
18-Nov-17 08:30 34.529439 -114.430279 179 634ft 0kts
18-Nov-17 08:31 34.529439 -114.430279 179 634ft 0kts
18-Nov-17 08:32 34.529439 -114.430279 179 634ft 0kts
18-Nov-17 08:33 34.529439 -114.430279 179 634ft 0kts
18-Nov-17 08:34 34.529439 -114.430279 179 634ft 0kts
18-Nov-17 08:35 34.529439 -114.430279 179 634ft 0kts
18-Nov-17 08:36 34.529369 -114.430284 192 634ft 3kts
18-Nov-17 08:37 34.525567 -114.430959 181 634ft 22kts
18-Nov-17 08:38 34.522064 -114.431146 266 634ft 0kts
18-Nov-17 08:39 34.522064 -114.431146 266 634ft 0kts
18-Nov-17 08:40 34.522064 -114.431146 266 634ft 0kts
18-Nov-17 08:41 34.522064 -114.431146 266 634ft 0kts
18-Nov-17 08:42 34.522064 -114.431146 266 634ft 0kts
18-Nov-17 08:43 34.522064 -114.431146 266 634ft 0kts
18-Nov-17 08:44 34.522055 -114.431507 273 635ft 3kts
18-Nov-17 08:45 34.527788 -114.431889 355 735ft 96kts
18-Nov-17 08:46 34.562154 -114.436328 346 2381ft 153kts
18-Nov-17 09:01 34.529444 -114.430285 180 634ft 0kts
18-Nov-17 09:02 34.529321 -114.430343 229 634ft 0kts
18-Nov-17 09:03 34.529321 -114.430343 229 634ft 0kts
18-Nov-17 09:04 34.529321 -114.430343 229 634ft 0kts
18-Nov-17 09:05 34.529321 -114.430343 229 634ft 0kts
18-Nov-17 09:06 34.528244 -114.430961 177 634ft 6kts
18-Nov-17 09:07 34.524278 -114.430961 180 634ft 21kts
18-Nov-17 09:08 34.522092 -114.431137 264 634ft 0kts
18-Nov-17 09:09 34.522092 -114.431137 264 634ft 0kts
18-Nov-17 09:10 34.522092 -114.431137 264 634ft 0kts
18-Nov-17 09:11 34.522301 -114.431982 352 635ft 0kts
18-Nov-17 09:12 34.545844 -114.433179 344 1623ft 133kts
18-Nov-17 09:13 34.585445 -114.441725 347 3428ft 150kts
18-Nov-17 09:14 34.629236 -114.450275 355 5048ft 167kts
18-Nov-17 09:15 34.676631 -114.458266 354 6588ft 175kts
18-Nov-17 09:16 34.724899 -114.466795 355 8054ft 177kts
18-Nov-17 09:17 34.767688 -114.490318 277 9233ft 193kts
18-Nov-17 09:18 34.768172 -114.554523 273 10706ft 187kts
18-Nov-17 09:19 34.769339 -114.616544 273 12173ft 182kts
18-Nov-17 09:20 34.770651 -114.677059 273 13660ft 184kts
18-Nov-17 09:21 34.772047 -114.740482 273 15179ft 191kts
18-Nov-17 09:22 34.773416 -114.804528 273 16674ft 189kts
18-Nov-17 09:23 34.774753 -114.867114 273 18157ft 182kts
18-Nov-17 09:24 34.775954 -114.928086 273 19648ft 179kts
18-Nov-17 09:25 34.777110 -114.986760 273 21124ft 168kts
18-Nov-17 09:26 34.778169 -115.041319 273 22584ft 156kts
18-Nov-17 09:27 34.779068 -115.092153 272 23701ft 162kts
18-Nov-17 09:28 34.780464 -115.154708 272 23606ft 206kts
18-Nov-17 09:29 34.781834 -115.230002 272 22985ft 239kts
18-Nov-17 09:30 34.783108 -115.313822 272 22086ft 255kts
18-Nov-17 09:31 34.784630 -115.401707 272 21123ft 263kts
18-Nov-17 09:32 34.786138 -115.491646 272 20386ft 260kts
18-Nov-17 09:33 34.787433 -115.577165 272 20322ft 248kts
18-Nov-17 09:34 34.788400 -115.659036 272 20396ft 241kts
18-Nov-17 09:35 34.789505 -115.740414 272 20401ft 241kts
18-Nov-17 09:36 34.790568 -115.822017 272 20400ft 241kts
18-Nov-17 09:37 34.791574 -115.903626 272 20399ft 241kts
18-Nov-17 09:38 34.792455 -115.984880 272 20404ft 240kts
18-Nov-17 09:39 34.793431 -116.066228 272 20398ft 240kts
18-Nov-17 09:40 34.794260 -116.147686 272 20398ft 240kts
18-Nov-17 09:41 34.795052 -116.228938 272 20354ft 242kts
18-Nov-17 09:42 34.795784 -116.310235 272 20342ft 241kts
18-Nov-17 09:43 34.796468 -116.391685 272 20342ft 240kts
18-Nov-17 09:44 34.795669 -116.472837 267 20340ft 241kts
18-Nov-17 09:45 34.788177 -116.553752 266 20341ft 241kts
18-Nov-17 09:46 34.780290 -116.634581 265 20340ft 241kts
18-Nov-17 09:47 34.772392 -116.714756 265 20347ft 241kts
18-Nov-17 09:48 34.764351 -116.795913 265 20346ft 242kts
18-Nov-17 09:49 34.756267 -116.876927 265 20346ft 242kts
18-Nov-17 09:50 34.748139 -116.957956 265 20345ft 242kts
18-Nov-17 09:51 34.739934 -117.038867 266 20344ft 240kts
18-Nov-17 09:52 34.731739 -117.119568 266 20343ft 240kts
18-Nov-17 09:53 34.723500 -117.199786 266 20343ft 239kts
18-Nov-17 09:54 34.715190 -117.280319 265 20343ft 240kts
18-Nov-17 09:55 34.706792 -117.360877 265 20342ft 240kts
18-Nov-17 09:56 34.698356 -117.441435 265 20342ft 240kts
18-Nov-17 09:57 34.689882 -117.521954 265 20341ft 240kts
18-Nov-17 09:58 34.681373 -117.602423 265 20340ft 239kts
18-Nov-17 09:59 34.672835 -117.682356 265 20320ft 240kts
18-Nov-17 10:00 34.664218 -117.762744 265 20320ft 240kts
18-Nov-17 10:01 34.655522 -117.843218 265 20319ft 240kts
18-Nov-17 10:02 34.646837 -117.923060 265 20318ft 240kts
18-Nov-17 10:03 34.638055 -118.003310 265 20318ft 240kts
18-Nov-17 10:04 34.630324 -118.082012 267 20346ft 239kts
18-Nov-17 10:05 34.625042 -118.162144 267 20344ft 239kts
18-Nov-17 10:06 34.619767 -118.242601 267 20343ft 239kts
18-Nov-17 10:07 34.614456 -118.322924 268 20343ft 239kts
18-Nov-17 10:08 34.609116 -118.402838 268 20342ft 239kts
18-Nov-17 10:09 34.603703 -118.483140 267 20341ft 239kts
18-Nov-17 10:10 34.598225 -118.563551 267 20341ft 239kts
18-Nov-17 10:11 34.592710 -118.643735 267 20315ft 240kts
18-Nov-17 10:12 34.587192 -118.723220 267 20320ft 240kts
18-Nov-17 10:13 34.581522 -118.804164 267 20320ft 241kts
18-Nov-17 10:14 34.575822 -118.884718 267 20319ft 241kts
18-Nov-17 10:15 34.570131 -118.964290 267 20318ft 241kts
18-Nov-17 10:16 34.564653 -119.040269 267 20318ft 241kts
18-Nov-17 10:17 34.558468 -119.126083 266 19239ft 268kts
18-Nov-17 10:18 34.551914 -119.216163 266 18032ft 262kts
18-Nov-17 10:19 34.545448 -119.302537 267 16804ft 255kts
18-Nov-17 10:20 34.539009 -119.388342 267 15593ft 256kts
18-Nov-17 10:21 34.532550 -119.474752 267 14334ft 259kts
18-Nov-17 10:22 34.525935 -119.562306 266 13034ft 263kts
18-Nov-17 10:23 34.519362 -119.649015 265 11760ft 266kts
18-Nov-17 10:24 34.512378 -119.737936 264 10471ft 262kts
18-Nov-17 10:25 34.540418 -119.810042 309 9999ft 237kts
18-Nov-17 10:26 34.577097 -119.859550 310 9728ft 243kts
18-Nov-17 10:27 34.623166 -119.919913 310 9031ft 232kts
18-Nov-17 10:28 34.671667 -119.984296 310 9038ft 217kts
18-Nov-17 10:29 34.706015 -120.029696 310 9040ft 220kts
18-Nov-17 10:30 34.747690 -120.084807 310 9039ft 223kts
18-Nov-17 10:31 34.796669 -120.149791 310 9005ft 224kts
18-Nov-17 10:32 34.832751 -120.197582 310 8084ft 237kts
18-Nov-17 10:33 34.877525 -120.256997 311 6801ft 239kts
18-Nov-17 10:34 34.921565 -120.315687 311 6000ft 220kts
18-Nov-17 10:35 34.960555 -120.367894 311 6007ft 202kts
18-Nov-17 10:36 34.998505 -120.418602 311 6011ft 203kts
18-Nov-17 10:37 35.036619 -120.469611 311 6010ft 204kts
18-Nov-17 10:38 35.074942 -120.520958 311 6001ft 204kts
18-Nov-17 10:39 35.113331 -120.572362 311 5457ft 214kts
18-Nov-17 10:40 35.153687 -120.626774 311 4186ft 211kts
18-Nov-17 10:41 35.182455 -120.683509 272 3205ft 191kts
18-Nov-17 10:42 35.148022 -120.726955 210 2419ft 189kts
18-Nov-17 10:43 35.105248 -120.723936 123 2284ft 169kts
18-Nov-17 10:44 35.080930 -120.674500 121 2395ft 170kts
18-Nov-17 10:45 35.055725 -120.625389 117 2513ft 171kts
18-Nov-17 10:46 35.029975 -120.572262 118 1969ft 179kts
18-Nov-17 10:47 35.036838 -120.526803 21 1542ft 156kts
18-Nov-17 10:48 35.059778 -120.545120 300 1199ft 106kts
18-Nov-17 10:49 35.072512 -120.575104 305 858ft 95kts
18-Nov-17 10:50 35.088517 -120.598994 312 559ft 80kts
18-Nov-17 10:51 35.102582 -120.623799 307 863ft 116kts
18-Nov-17 10:52 35.088791 -120.653668 211 1327ft 124kts
18-Nov-17 10:53 35.061137 -120.647219 119 1473ft 124kts
18-Nov-17 10:54 35.044013 -120.609927 115 1492ft 118kts
18-Nov-17 10:55 35.051761 -120.579800 32 1056ft 107kts
18-Nov-17 10:56 35.073780 -120.586302 307 688ft 96kts
18-Nov-17 10:57 35.094371 -120.608369 301 244ft 96kts
18-Nov-17 10:58 35.102472 -120.623906 342 20ft 8kts
18-Nov-17 10:59 35.103324 -120.624088 23 19ft 0kts
18-Nov-17 11:00 35.103324 -120.624088 23 19ft 0kts
18-Nov-17 11:01 35.103324 -120.624088 23 19ft 0kts
18-Nov-17 11:02 35.103324 -120.624088 24 19ft 0kts
18-Nov-17 11:03 35.103324 -120.624088 24 19ft 0kts
18-Nov-17 11:04 35.103324 -120.624088 24 19ft 0kts
18-Nov-17 11:05 35.103324 -120.624088 24 19ft 0kts
18-Nov-17 11:06 35.103324 -120.624088 24 19ft 0kts
18-Nov-17 11:07 35.103324 -120.624088 24 19ft 0kts
18-Nov-17 11:08 35.103324 -120.624088 24 19ft 0kts

Navigation Log

Ident Type
Flight plan parsing failed, navigation log unavailable